Terminal Aerodrome Forecast
Issued by NWS

Home | Current Version | Previous Version | Text Only | Print | Product List | Glossary On
Versions: 1 2 3 4 5 6 7 8 9 10 11 12 13 14
000
FTUS44 KLZK 272300
TAFLLQ
TAF
KLLQ 272337Z 2800/2824 02004KT P6SM SKC
     FM280400 02005KT P6SM OVC110
     FM280900 12003KT P6SM SCT050 OVC100
     FM281400 12006KT P6SM SCT025 OVC050 PROB30 2815/2820 5SM -SHRA
      OVC025
     FM282000 13006KT P6SM OVC050
      TEMPO 2820/2823 5SM -RA OVC025=

USA.gov is the U.S. government's official web portal to all federal, state and local government web resources and services.